Time;durP1;ratioP1;P1;durP2;ratioP2;P2;SDS_P1;SDS_P2;PMS_P1;PMS_P2;Temp;Humidity;BMP_temperature;BMP_pressure;BME280_temperature;BME280_humidity;BME280_pressure;Samples;Min_cycle;Max_cycle;Signal;HPM_P1;HPM_P2
2022/01/09 13:52:46;;;;;;;;;;;18.10;67.00;;;;;;5105717;27;19926;-89
2022/01/09 13:55:13;;;;;;;;;;;18.10;65.90;;;;;;5105679;28;19912;-90
2022/01/09 13:58:10;;;;;;;;;;;18.10;64.50;;;;;;5104438;28;20401;-89
2022/01/09 14:00:37;;;;;;;;;;;18.00;70.00;;;;;;5102243;28;20438;-77
2022/01/09 14:03:05;;;;;;;;;;;18.00;64.90;;;;;;5104199;28;19950;-78
2022/01/09 14:05:49;;;;;;;;;;;18.20;65.30;;;;;;5104369;28;19920;-81
2022/01/09 14:08:14;;;;;;;;;;;18.60;65.00;;;;;;5101694;28;19912;-81
2022/01/09 14:10:41;;;;;;;;;;;18.60;65.60;;;;;;5104334;28;19920;-81
2022/01/09 14:13:14;;;;;;;;;;;18.80;65.60;;;;;;5104483;28;20380;-80
2022/01/09 14:15:40;;;;;;;;;;;19.00;65.20;;;;;;5102627;28;20044;-80
2022/01/09 14:18:06;;;;;;;;;;;19.10;64.80;;;;;;5104157;28;20058;-80
2022/01/09 14:20:31;;;;;;;;;;;19.10;64.50;;;;;;5104504;28;19912;-77
2022/01/09 14:22:58;;;;;;;;;;;19.20;63.70;;;;;;5105495;28;19912;-77
2022/01/09 14:25:23;;;;;;;;;;;19.50;64.40;;;;;;5104987;28;19908;-80
2022/01/09 14:27:49;;;;;;;;;;;19.20;64.30;;;;;;5105809;28;19934;-85
2022/01/09 14:30:26;;;;;;;;;;;19.20;64.10;;;;;;5105380;28;19912;-78
2022/01/09 14:33:12;;;;;;;;;;;19.30;64.00;;;;;;5106404;28;19922;-81
2022/01/09 14:35:48;;;;;;;;;;;19.30;63.90;;;;;;5105225;28;19912;-77
2022/01/09 14:38:18;;;;;;;;;;;19.30;64.10;;;;;;5124126;28;19907;-82
2022/01/09 14:40:46;;;;;;;;;;;19.30;64.10;;;;;;5124200;28;20381;-82
2022/01/09 14:43:12;;;;;;;;;;;19.40;64.10;;;;;;5125739;28;19908;-77
2022/01/09 14:45:37;;;;;;;;;;;19.40;64.00;;;;;;5109414;28;20397;-79
2022/01/09 14:48:03;;;;;;;;;;;19.40;64.10;;;;;;5105623;28;19912;-78
2022/01/09 14:50:28;;;;;;;;;;;19.40;64.20;;;;;;5104693;28;19908;-82
2022/01/09 14:52:55;;;;;;;;;;;19.50;64.20;;;;;;5104513;28;19912;-78
2022/01/09 14:55:21;;;;;;;;;;;19.50;64.10;;;;;;5105232;28;19956;-80
2022/01/09 14:57:46;;;;;;;;;;;19.50;64.10;;;;;;5103780;28;19939;-79
2022/01/09 15:00:12;;;;;;;;;;;19.50;64.10;;;;;;5103588;28;19912;-79
2022/01/09 15:02:38;;;;;;;;;;;19.60;64.10;;;;;;5097281;28;20034;-78
2022/01/09 15:05:04;;;;;;;;;;;19.60;64.20;;;;;;5092590;28;19920;-78
2022/01/09 15:07:31;;;;;;;;;;;19.60;64.20;;;;;;5091662;28;19912;-79
2022/01/09 15:09:56;;;;;;;;;;;19.60;64.10;;;;;;5090673;28;19998;-90
2022/01/09 15:12:22;;;;;;;;;;;19.50;63.40;;;;;;5091235;28;20002;-80
2022/01/09 15:14:47;;;;;;;;;;;19.60;64.00;;;;;;5091734;28;19939;-79
2022/01/09 15:17:13;;;;;;;;;;;19.60;63.80;;;;;;5091507;28;19915;-80
2022/01/09 15:19:38;;;;;;;;;;;19.60;63.70;;;;;;5089348;28;20025;-79
2022/01/09 15:22:06;;;;;;;;;;;19.60;63.50;;;;;;5100646;28;20444;-82
2022/01/09 15:24:32;;;;;;;;;;;19.50;63.50;;;;;;5111162;28;19934;-82
2022/01/09 15:26:57;;;;;;;;;;;19.50;63.60;;;;;;5103456;28;20379;-83
2022/01/09 15:29:23;;;;;;;;;;;19.50;63.80;;;;;;5091751;28;20375;-82
2022/01/09 15:31:49;;;;;;;;;;;19.60;63.70;;;;;;5090771;28;19930;-81
2022/01/09 15:34:15;;;;;;;;;;;19.60;63.60;;;;;;5090830;28;19908;-81
2022/01/09 15:36:40;;;;;;;;;;;19.60;63.50;;;;;;5090594;28;20381;-82
2022/01/09 15:39:06;;;;;;;;;;;19.60;63.30;;;;;;5090871;28;20364;-82
2022/01/09 15:41:31;;;;;;;;;;;19.50;64.00;;;;;;5091110;28;19912;-82
2022/01/09 15:43:57;;;;;;;;;;;19.50;63.10;;;;;;5092052;28;19953;-82
2022/01/09 15:46:23;;;;;;;;;;;19.50;63.10;;;;;;5091600;28;19908;-81
2022/01/09 15:48:51;;;;;;;;;;;19.50;63.00;;;;;;5091005;28;19912;-82
2022/01/09 15:51:20;;;;;;;;;;;19.50;63.00;;;;;;5090116;28;19920;-82
2022/01/09 15:53:46;;;;;;;;;;;19.40;62.90;;;;;;5090925;28;19934;-82
2022/01/09 15:56:12;;;;;;;;;;;19.50;62.90;;;;;;5090733;28;20384;-83
2022/01/09 15:58:38;;;;;;;;;;;19.40;62.90;;;;;;5090999;28;19908;-82
2022/01/09 16:01:04;;;;;;;;;;;19.40;62.90;;;;;;5090596;28;19939;-82
2022/01/09 16:03:29;;;;;;;;;;;19.50;62.80;;;;;;5090696;28;19966;-81
2022/01/09 16:05:55;;;;;;;;;;;19.40;62.70;;;;;;5090985;28;19912;-82
2022/01/09 16:08:20;;;;;;;;;;;19.50;62.80;;;;;;5053636;28;19919;-82
2022/01/09 16:10:46;;;;;;;;;;;19.50;62.80;;;;;;5070373;28;20101;-81
2022/01/09 16:13:11;;;;;;;;;;;19.50;62.80;;;;;;5073164;28;19951;-82
2022/01/09 16:15:37;;;;;;;;;;;19.50;62.70;;;;;;5089692;28;19909;-82
2022/01/09 16:18:03;;;;;;;;;;;19.50;62.60;;;;;;5090323;28;19934;-84
2022/01/09 16:20:28;;;;;;;;;;;19.50;62.50;;;;;;5078847;28;20419;-82
2022/01/09 16:22:54;;;;;;;;;;;19.50;62.50;;;;;;5070219;28;19915;-82
2022/01/09 16:25:19;;;;;;;;;;;19.50;62.50;;;;;;5069771;28;19915;-82
2022/01/09 16:27:45;;;;;;;;;;;19.50;62.50;;;;;;5070076;28;19913;-84
2022/01/09 16:30:11;;;;;;;;;;;19.50;62.40;;;;;;5069763;28;19955;-82
2022/01/09 16:32:37;;;;;;;;;;;19.50;62.30;;;;;;5069899;28;19916;-82
2022/01/09 16:35:03;;;;;;;;;;;19.50;62.30;;;;;;5069119;28;19909;-83
2022/01/09 16:37:30;;;;;;;;;;;19.50;62.30;;;;;;5069361;28;20006;-82
2022/01/09 16:39:56;;;;;;;;;;;19.50;62.20;;;;;;5052544;28;20288;-82
2022/01/09 16:42:22;;;;;;;;;;;19.50;62.30;;;;;;5069475;28;20372;-82
2022/01/09 16:44:48;;;;;;;;;;;19.50;62.20;;;;;;5051808;28;20229;-82
2022/01/09 16:47:13;;;;;;;;;;;19.50;62.10;;;;;;5069453;28;19909;-82
2022/01/09 16:49:39;;;;;;;;;;;19.50;62.10;;;;;;5068781;28;19944;-83
2022/01/09 16:52:04;;;;;;;;;;;19.50;62.00;;;;;;5083860;28;19927;-82
2022/01/09 16:54:30;;;;;;;;;;;19.50;62.00;;;;;;5088189;28;19916;-82
2022/01/09 16:56:56;;;;;;;;;;;19.50;62.00;;;;;;5090586;28;19959;-83
2022/01/09 16:59:21;;;;;;;;;;;19.50;61.90;;;;;;5089506;28;20360;-84
2022/01/09 17:01:47;;;;;;;;;;;19.50;61.80;;;;;;5089935;28;20306;-84
2022/01/09 17:04:13;;;;;;;;;;;19.50;61.80;;;;;;5088925;28;20048;-86
2022/01/09 17:06:38;;;;;;;;;;;19.50;61.80;;;;;;5089736;28;20058;-81
2022/01/09 17:09:06;;;;;;;;;;;19.50;61.70;;;;;;5089324;28;19919;-84
2022/01/09 17:11:33;;;;;;;;;;;19.50;61.70;;;;;;5089184;28;19923;-84
2022/01/09 17:13:58;;;;;;;;;;;19.40;61.70;;;;;;5088009;28;19954;-84
2022/01/09 17:16:24;;;;;;;;;;;19.50;61.70;;;;;;5087738;28;19993;-84
2022/01/09 17:18:50;;;;;;;;;;;19.50;61.70;;;;;;5082745;28;19915;-84
2022/01/09 17:21:15;;;;;;;;;;;19.40;61.80;;;;;;5084649;28;19916;-85
2022/01/09 17:23:41;;;;;;;;;;;19.40;61.60;;;;;;5086591;28;19912;-83
2022/01/09 17:26:07;;;;;;;;;;;19.40;61.60;;;;;;5084706;28;19912;-83
2022/01/09 17:28:33;;;;;;;;;;;19.40;61.60;;;;;;5086515;28;19927;-83
2022/01/09 17:30:58;;;;;;;;;;;19.40;61.60;;;;;;5086186;28;19920;-83
2022/01/09 17:33:24;;;;;;;;;;;19.40;61.70;;;;;;5087374;28;19908;-83
2022/01/09 17:35:49;;;;;;;;;;;19.40;61.50;;;;;;5085616;28;19912;-83
2022/01/09 17:38:15;;;;;;;;;;;19.40;61.60;;;;;;5085939;28;20283;-80
2022/01/09 17:40:41;;;;;;;;;;;19.40;61.50;;;;;;5085687;28;19919;-82
2022/01/09 17:43:07;;;;;;;;;;;19.40;61.50;;;;;;5084615;28;19919;-84
2022/01/09 17:45:32;;;;;;;;;;;19.40;61.60;;;;;;5084875;28;20006;-83
2022/01/09 17:47:58;;;;;;;;;;;19.40;61.50;;;;;;5085557;28;19962;-82
2022/01/09 17:50:24;;;;;;;;;;;19.50;61.50;;;;;;5086397;28;19912;-83
2022/01/09 17:52:49;;;;;;;;;;;19.50;61.50;;;;;;5084939;28;19961;-85
2022/01/09 17:55:16;;;;;;;;;;;19.40;61.40;;;;;;5085203;28;20376;-83
2022/01/09 17:57:42;;;;;;;;;;;19.50;61.50;;;;;;5086108;28;19908;-84
2022/01/09 18:00:09;;;;;;;;;;;19.50;61.40;;;;;;5085602;28;19990;-83
2022/01/09 18:02:35;;;;;;;;;;;19.50;61.40;;;;;;5085500;28;20821;-83
2022/01/09 18:05:00;;;;;;;;;;;19.50;61.30;;;;;;5084510;28;20002;-83
2022/01/09 18:07:26;;;;;;;;;;;19.50;61.30;;;;;;5085503;28;20353;-83
2022/01/09 18:09:51;;;;;;;;;;;19.50;61.30;;;;;;5085123;28;19951;-82
2022/01/09 18:12:17;;;;;;;;;;;19.50;61.20;;;;;;5084738;28;20327;-84
2022/01/09 18:14:43;;;;;;;;;;;19.50;61.20;;;;;;5085501;28;19999;-83
2022/01/09 18:17:09;;;;;;;;;;;19.50;61.50;;;;;;5084141;28;19912;-83
2022/01/09 18:19:35;;;;;;;;;;;19.50;61.20;;;;;;5085241;28;19912;-84
2022/01/09 18:22:00;;;;;;;;;;;19.50;61.10;;;;;;5085869;28;20365;-83
2022/01/09 18:24:26;;;;;;;;;;;19.50;61.10;;;;;;5086883;28;19916;-83
2022/01/09 18:26:51;;;;;;;;;;;19.50;61.00;;;;;;5085832;28;19916;-83
2022/01/09 18:29:21;;;;;;;;;;;19.50;61.20;;;;;;5085517;28;20539;-83
2022/01/09 18:31:48;;;;;;;;;;;19.50;61.00;;;;;;5085757;28;19966;-83
2022/01/09 18:34:13;;;;;;;;;;;19.50;61.10;;;;;;5085188;28;19908;-83
2022/01/09 18:36:40;;;;;;;;;;;19.40;61.00;;;;;;5084876;28;19916;-83
2022/01/09 18:39:07;;;;;;;;;;;19.40;60.90;;;;;;5087373;28;20372;-84
2022/01/09 18:41:34;;;;;;;;;;;19.50;61.00;;;;;;5088616;28;20007;-83
2022/01/09 18:44:00;;;;;;;;;;;19.40;61.00;;;;;;5088421;28;19951;-83
2022/01/09 18:46:26;;;;;;;;;;;19.50;61.00;;;;;;5089216;28;20359;-82
2022/01/09 18:48:53;;;;;;;;;;;19.40;60.90;;;;;;5087756;28;20315;-82
2022/01/09 18:51:19;;;;;;;;;;;19.40;60.90;;;;;;5085221;28;19970;-83
2022/01/09 18:53:44;;;;;;;;;;;19.40;60.90;;;;;;5085572;28;19959;-82
2022/01/09 18:56:13;;;;;;;;;;;19.40;60.90;;;;;;5088098;28;19930;-82
2022/01/09 18:58:39;;;;;;;;;;;19.50;61.00;;;;;;5086901;28;19908;-83
2022/01/09 19:01:05;;;;;;;;;;;19.50;61.00;;;;;;5087686;28;19912;-85
2022/01/09 19:03:33;;;;;;;;;;;19.40;60.20;;;;;;5088171;28;19920;-79
2022/01/09 19:05:59;;;;;;;;;;;19.50;60.80;;;;;;5089777;28;19912;-78
2022/01/09 19:08:25;;;;;;;;;;;19.50;60.90;;;;;;5090584;28;19916;-79
2022/01/09 19:10:50;;;;;;;;;;;19.50;60.90;;;;;;5090028;28;19916;-78
2022/01/09 19:13:16;;;;;;;;;;;19.50;61.00;;;;;;5089358;28;19939;-83
2022/01/09 19:15:42;;;;;;;;;;;19.60;61.10;;;;;;5089195;28;19919;-83
2022/01/09 19:18:07;;;;;;;;;;;19.60;61.20;;;;;;5088381;28;19908;-83
2022/01/09 19:20:33;;;;;;;;;;;19.70;61.40;;;;;;5088792;28;19965;-82
2022/01/09 19:23:02;;;;;;;;;;;19.70;61.50;;;;;;5082895;28;19923;-84
2022/01/09 19:25:28;;;;;;;;;;;19.70;61.50;;;;;;5078078;28;19923;-79
2022/01/09 19:27:54;;;;;;;;;;;19.80;61.40;;;;;;5089205;28;19920;-81
2022/01/09 19:30:20;;;;;;;;;;;19.80;61.30;;;;;;5088273;28;19908;-78
2022/01/09 19:32:45;;;;;;;;;;;19.90;61.40;;;;;;5088173;28;19928;-82
2022/01/09 19:35:12;;;;;;;;;;;19.90;61.30;;;;;;5076636;28;19912;-81
2022/01/09 19:37:38;;;;;;;;;;;19.90;61.40;;;;;;5089030;28;19987;-80
2022/01/09 19:40:04;;;;;;;;;;;19.90;61.20;;;;;;5088674;28;20046;-81
2022/01/09 19:42:30;;;;;;;;;;;19.90;61.10;;;;;;5089061;28;19920;-83
2022/01/09 19:44:55;;;;;;;;;;;19.90;61.20;;;;;;5082326;28;19912;-81
2022/01/09 19:47:21;;;;;;;;;;;19.80;61.10;;;;;;5086528;28;19999;-83
2022/01/09 19:49:46;;;;;;;;;;;19.80;61.70;;;;;;5086783;28;20272;-82
2022/01/09 19:52:12;;;;;;;;;;;19.80;61.40;;;;;;5086820;28;19959;-87
2022/01/09 19:54:41;;;;;;;;;;;19.80;61.50;;;;;;5087973;28;19918;-85
2022/01/09 19:57:10;;;;;;;;;;;19.80;61.50;;;;;;5088280;28;19918;-83
2022/01/09 19:59:36;;;;;;;;;;;19.80;61.50;;;;;;5086755;28;20011;-83
2022/01/09 20:02:03;;;;;;;;;;;19.80;61.50;;;;;;5088162;28;19908;-83
2022/01/09 20:04:30;;;;;;;;;;;19.70;61.00;;;;;;5088139;28;19920;-74
2022/01/09 20:06:55;;;;;;;;;;;19.70;61.60;;;;;;5087673;28;19912;-74
2022/01/09 20:09:21;;;;;;;;;;;19.70;61.40;;;;;;5086114;28;19958;-74
2022/01/09 20:11:47;;;;;;;;;;;19.70;61.20;;;;;;5083753;28;19931;-75
2022/01/09 20:14:13;;;;;;;;;;;19.60;61.10;;;;;;5086705;28;19966;-74
2022/01/09 20:16:39;;;;;;;;;;;19.60;61.10;;;;;;5086942;28;19912;-75
2022/01/09 20:19:05;;;;;;;;;;;19.50;61.20;;;;;;5084559;28;19919;-76
2022/01/09 20:21:31;;;;;;;;;;;19.50;61.20;;;;;;5083561;28;19916;-76
2022/01/09 20:24:00;;;;;;;;;;;19.50;61.20;;;;;;5086003;28;20011;-75
2022/01/09 20:26:25;;;;;;;;;;;19.40;61.20;;;;;;5082558;28;19912;-75
2022/01/09 20:28:52;;;;;;;;;;;19.40;61.30;;;;;;5086272;28;19969;-76
2022/01/09 20:31:18;;;;;;;;;;;19.40;61.30;;;;;;5082601;28;20165;-76
2022/01/09 20:33:44;;;;;;;;;;;19.40;61.40;;;;;;5085817;28;19958;-75
2022/01/09 20:36:09;;;;;;;;;;;19.30;61.30;;;;;;5085214;28;19916;-77
2022/01/09 20:38:37;;;;;;;;;;;19.30;61.40;;;;;;5084395;28;20354;-77
2022/01/09 20:41:10;;;;;;;;;;;19.30;61.40;;;;;;5086507;28;19916;-77
2022/01/09 20:43:36;;;;;;;;;;;19.30;61.40;;;;;;5087032;28;19950;-76
2022/01/09 20:46:02;;;;;;;;;;;19.40;61.40;;;;;;5086607;28;19955;-76
2022/01/09 20:48:28;;;;;;;;;;;19.30;61.30;;;;;;5086793;28;19916;-76
2022/01/09 20:50:55;;;;;;;;;;;19.30;61.30;;;;;;5086557;28;20007;-77
2022/01/09 20:53:21;;;;;;;;;;;19.40;61.40;;;;;;5086123;28;19912;-75
2022/01/09 20:55:46;;;;;;;;;;;19.30;61.30;;;;;;5086221;28;19912;-77
2022/01/09 20:58:12;;;;;;;;;;;19.30;61.30;;;;;;5085640;28;20369;-75
2022/01/09 21:00:37;;;;;;;;;;;19.30;61.30;;;;;;5086439;28;19916;-77
2022/01/09 21:03:03;;;;;;;;;;;19.30;61.20;;;;;;5085344;28;19959;-76
2022/01/09 21:05:29;;;;;;;;;;;19.30;61.20;;;;;;5087234;28;19908;-76
2022/01/09 21:07:56;;;;;;;;;;;19.40;61.30;;;;;;5088061;28;19912;-76
2022/01/09 21:10:23;;;;;;;;;;;19.30;61.20;;;;;;5084523;28;19916;-77
2022/01/09 21:12:49;;;;;;;;;;;19.40;61.30;;;;;;5086936;28;19928;-76
2022/01/09 21:15:14;;;;;;;;;;;19.40;61.20;;;;;;5087756;28;19908;-76
2022/01/09 21:17:40;;;;;;;;;;;19.40;61.10;;;;;;5087556;28;19923;-76
2022/01/09 21:20:06;;;;;;;;;;;19.40;61.10;;;;;;5087808;28;19919;-78
2022/01/09 21:22:31;;;;;;;;;;;19.40;61.10;;;;;;5088017;28;19972;-75
2022/01/09 21:24:57;;;;;;;;;;;19.40;61.10;;;;;;5088969;28;20010;-75
2022/01/09 21:27:23;;;;;;;;;;;19.40;61.00;;;;;;5085072;28;19964;-75
2022/01/09 21:29:49;;;;;;;;;;;19.40;61.10;;;;;;5088100;28;19908;-76
2022/01/09 21:32:14;;;;;;;;;;;19.30;60.90;;;;;;5087549;28;19916;-76
2022/01/09 21:34:40;;;;;;;;;;;19.30;60.90;;;;;;5087917;28;20462;-76
2022/01/09 21:37:05;;;;;;;;;;;19.30;61.00;;;;;;5086307;28;19912;-77
2022/01/09 21:39:31;;;;;;;;;;;19.30;60.90;;;;;;5087818;28;19916;-76
2022/01/09 21:41:57;;;;;;;;;;;19.30;60.90;;;;;;5085995;28;20390;-76
2022/01/09 21:44:23;;;;;;;;;;;19.20;60.80;;;;;;5086554;28;19916;-76
2022/01/09 21:46:48;;;;;;;;;;;19.20;60.80;;;;;;5087265;28;19957;-76
2022/01/09 21:49:14;;;;;;;;;;;19.20;60.80;;;;;;5086302;28;19912;-76
2022/01/09 21:51:39;;;;;;;;;;;19.20;60.90;;;;;;5087595;28;20053;-76
2022/01/09 21:54:07;;;;;;;;;;;19.20;60.90;;;;;;5087876;28;19961;-73
2022/01/09 21:56:33;;;;;;;;;;;19.20;61.00;;;;;;5087767;28;20384;-76
2022/01/09 21:58:58;;;;;;;;;;;19.20;61.00;;;;;;5087710;28;20028;-76
2022/01/09 22:01:24;;;;;;;;;;;19.10;60.90;;;;;;5085890;28;19916;-76
2022/01/09 22:03:49;;;;;;;;;;;19.10;60.90;;;;;;5085394;28;19912;-76
2022/01/09 22:06:15;;;;;;;;;;;19.10;61.00;;;;;;5089122;28;19912;-77
2022/01/09 22:08:40;;;;;;;;;;;19.00;60.90;;;;;;5087862;28;19999;-76
2022/01/09 22:11:06;;;;;;;;;;;19.00;60.90;;;;;;5087707;28;20033;-76
2022/01/09 22:13:31;;;;;;;;;;;19.00;60.90;;;;;;5090020;28;19911;-77
2022/01/09 22:15:57;;;;;;;;;;;19.00;61.00;;;;;;5092671;28;20314;-76
2022/01/09 22:18:24;;;;;;;;;;;19.00;61.00;;;;;;5091272;28;19916;-77
2022/01/09 22:20:49;;;;;;;;;;;19.00;61.00;;;;;;5089242;28;19912;-76
2022/01/09 22:23:15;;;;;;;;;;;19.00;61.00;;;;;;5092328;28;19919;-76
2022/01/09 22:25:41;;;;;;;;;;;18.90;61.00;;;;;;5097571;28;19913;-77
2022/01/09 22:28:07;;;;;;;;;;;18.90;61.00;;;;;;5093187;28;19931;-76
2022/01/09 22:30:32;;;;;;;;;;;18.90;61.00;;;;;;5093116;28;20371;-76
2022/01/09 22:32:59;;;;;;;;;;;18.90;61.00;;;;;;5092985;28;19950;-77
2022/01/09 22:35:25;;;;;;;;;;;18.90;61.00;;;;;;5093760;28;19912;-76
2022/01/09 22:37:51;;;;;;;;;;;18.90;61.00;;;;;;5092954;28;20261;-76
2022/01/09 22:40:17;;;;;;;;;;;18.80;60.90;;;;;;5092810;28;19947;-76
2022/01/09 22:42:43;;;;;;;;;;;18.90;61.00;;;;;;5092820;28;19908;-76
2022/01/09 22:45:08;;;;;;;;;;;18.80;60.90;;;;;;5092813;28;19909;-76
2022/01/09 22:47:34;;;;;;;;;;;18.80;60.90;;;;;;5092187;28;19953;-76
2022/01/09 22:49:59;;;;;;;;;;;18.80;60.90;;;;;;5093139;28;19909;-76
2022/01/09 22:52:25;;;;;;;;;;;18.80;61.30;;;;;;5093268;28;20284;-76
2022/01/09 22:54:50;;;;;;;;;;;18.80;61.00;;;;;;5092561;28;19912;-76
2022/01/09 22:57:21;;;;;;;;;;;18.70;60.90;;;;;;5091188;28;19908;-75
2022/01/09 22:59:49;;;;;;;;;;;18.70;60.90;;;;;;5092458;28;20394;-76
2022/01/09 23:02:15;;;;;;;;;;;18.70;60.90;;;;;;5091935;28;19991;-76
2022/01/09 23:04:40;;;;;;;;;;;18.70;60.90;;;;;;5092322;28;19915;-75
2022/01/09 23:07:06;;;;;;;;;;;18.70;61.00;;;;;;5092320;28;19912;-76
2022/01/09 23:09:31;;;;;;;;;;;18.70;60.90;;;;;;5092247;28;19915;-76
2022/01/09 23:11:58;;;;;;;;;;;18.70;60.90;;;;;;5093181;28;19923;-76
2022/01/09 23:14:23;;;;;;;;;;;18.60;60.90;;;;;;5092286;28;19931;-76
2022/01/09 23:16:49;;;;;;;;;;;18.60;60.90;;;;;;5091545;28;20531;-76
2022/01/09 23:19:14;;;;;;;;;;;18.60;60.90;;;;;;5092223;28;19908;-76
2022/01/09 23:21:40;;;;;;;;;;;18.60;60.90;;;;;;5092088;28;19908;-76
2022/01/09 23:24:06;;;;;;;;;;;18.60;61.00;;;;;;5091503;28;20003;-76
2022/01/09 23:26:31;;;;;;;;;;;18.60;61.00;;;;;;5092038;28;19908;-75
2022/01/09 23:28:57;;;;;;;;;;;18.60;61.00;;;;;;5092756;28;19912;-76
2022/01/09 23:31:22;;;;;;;;;;;18.50;60.90;;;;;;5090244;28;19916;-75
2022/01/09 23:33:48;;;;;;;;;;;18.50;60.90;;;;;;5091598;28;19922;-75
2022/01/09 23:36:14;;;;;;;;;;;18.50;60.90;;;;;;5091748;28;19958;-75
2022/01/09 23:38:40;;;;;;;;;;;18.50;61.00;;;;;;5091587;28;19977;-75
2022/01/09 23:41:05;;;;;;;;;;;18.50;61.00;;;;;;5091808;28;20364;-76
2022/01/09 23:43:31;;;;;;;;;;;18.50;61.00;;;;;;5092302;28;19908;-75
2022/01/09 23:45:58;;;;;;;;;;;18.50;61.10;;;;;;5092290;28;19919;-76
2022/01/09 23:50:24;;;;;;;;;;;18.50;61.00;;;;;;5090890;28;19958;-75
2022/01/09 23:51:13;;;;;;;;;;;18.50;61.00;;;;;;5091166;28;19920;-75
2022/01/09 23:53:38;;;;;;;;;;;18.50;61.00;;;;;;5091483;28;20016;-75
2022/01/09 23:56:04;;;;;;;;;;;18.50;61.10;;;;;;5091405;28;20288;-75
2022/01/09 23:58:30;;;;;;;;;;;18.40;61.00;;;;;;5092234;28;19908;-76
